Time;durP1;ratioP1;P1;durP2;ratioP2;P2;SDS_P1;SDS_P2;PMS_P1;PMS_P2;Temp;Humidity;BMP_temperature;BMP_pressure;BME280_temperature;BME280_humidity;BME280_pressure;Samples;Min_cycle;Max_cycle;Signal;HPM_P1;HPM_P2
2024/01/15 00:02:06;;;;;;;34.75;19.02;;;;;;;2.04;96.61;100141.50;3607411;39;20096;-64
2024/01/15 00:04:39;;;;;;;34.40;18.20;;;;;;;2.29;95.98;100171.47;3607570;39;20048;-64
2024/01/15 00:07:06;;;;;;;34.90;18.73;;;;;;;2.29;97.43;100173.25;3608745;39;20051;-65
2024/01/15 00:09:32;;;;;;;31.95;17.23;;;;;;;2.31;96.33;100180.22;3607733;39;20062;-64
2024/01/15 00:11:59;;;;;;;32.92;16.08;;;;;;;2.30;97.04;100169.69;3608520;39;20055;-65
2024/01/15 00:14:24;;;;;;;33.58;16.83;;;;;;;2.30;96.86;100170.53;3606689;39;20339;-64
2024/01/15 00:16:51;;;;;;;32.05;16.45;;;;;;;2.29;97.17;100157.34;3608328;39;20054;-64
2024/01/15 00:19:18;;;;;;;30.98;16.17;;;;;;;2.27;96.96;100160.03;3609695;39;20054;-65
2024/01/15 00:21:44;;;;;;;27.63;15.60;;;;;;;2.22;97.18;100151.44;3607549;39;20059;-65
2024/01/15 00:24:10;;;;;;;26.80;14.55;;;;;;;2.13;96.97;100124.41;3607049;39;20062;-65
2024/01/15 00:26:36;;;;;;;26.45;13.70;;;;;;;2.25;97.91;100140.69;3607840;39;20078;-64
2024/01/15 00:29:02;;;;;;;22.38;13.85;;;;;;;2.26;97.19;100152.16;3605343;39;20055;-64
2024/01/15 00:31:29;;;;;;;26.13;13.02;;;;;;;2.26;97.47;100158.34;3608435;39;20054;-64
2024/01/15 00:33:57;;;;;;;26.95;13.55;;;;;;;2.27;97.06;100144.13;3608436;39;20049;-65
2024/01/15 00:36:23;;;;;;;24.48;12.05;;;;;;;2.24;97.06;100149.56;3609791;39;20075;-63
2024/01/15 00:38:48;;;;;;;20.75;11.05;;;;;;;2.26;97.37;100138.91;3608148;39;20102;-63
2024/01/15 00:41:15;;;;;;;19.13;10.43;;;;;;;2.28;97.42;100137.94;3599487;39;20173;-63
2024/01/15 00:43:40;;;;;;;18.17;9.93;;;;;;;2.29;97.35;100131.69;3608372;39;20077;-63
2024/01/15 00:46:06;;;;;;;16.65;8.63;;;;;;;2.32;96.94;100123.63;3608058;39;20383;-63
2024/01/15 00:48:32;;;;;;;14.15;7.75;;;;;;;2.26;97.18;100115.03;3608560;39;20062;-63
2024/01/15 00:50:58;;;;;;;12.30;6.82;;;;;;;2.29;97.08;100122.88;3609302;39;20066;-62
2024/01/15 00:53:25;;;;;;;9.27;5.68;;;;;;;2.06;96.74;100079.56;3613611;39;20051;-63
2024/01/15 00:55:51;;;;;;;12.02;4.82;;;;;;;2.28;97.65;100119.38;3609179;39;20158;-63
2024/01/15 00:58:17;;;;;;;8.73;4.00;;;;;;;2.29;97.39;100117.56;3613584;39;20059;-63
2024/01/15 01:00:42;;;;;;;5.15;2.65;;;;;;;2.32;96.82;100112.16;3610856;39;20050;-63
2024/01/15 01:03:09;;;;;;;4.45;2.75;;;;;;;2.33;97.59;100116.53;3610262;39;20062;-64
2024/01/15 01:05:35;;;;;;;5.72;1.92;;;;;;;2.37;97.17;100110.16;3612571;39;20047;-62
2024/01/15 01:08:00;;;;;;;3.85;1.67;;;;;;;2.17;97.17;100079.13;3609393;39;20031;-63
2024/01/15 01:10:27;;;;;;;4.40;1.60;;;;;;;2.38;97.47;100114.56;3611141;39;20050;-62
2024/01/15 01:12:53;;;;;;;4.70;1.55;;;;;;;2.35;96.78;100106.72;3610877;39;20057;-63
2024/01/15 01:15:19;;;;;;;3.30;1.50;;;;;;;2.40;96.71;100103.88;3610810;39;20067;-65
2024/01/15 01:17:46;;;;;;;3.00;1.17;;;;;;;2.41;97.08;100102.94;3612615;39;20055;-64
2024/01/15 01:20:12;;;;;;;3.65;1.00;;;;;;;2.18;97.38;100064.09;3611487;39;20059;-64
2024/01/15 01:22:37;;;;;;;1.85;1.08;;;;;;;2.40;97.28;100095.91;3610737;39;20054;-63
2024/01/15 01:25:03;;;;;;;3.15;1.38;;;;;;;2.41;97.08;100092.34;3611881;39;20055;-62
2024/01/15 01:27:29;;;;;;;3.47;1.15;;;;;;;2.43;97.35;100086.06;3611753;39;20055;-63
2024/01/15 01:29:55;;;;;;;4.07;1.50;;;;;;;2.28;96.47;100071.63;3609384;39;20418;-63
2024/01/15 01:32:20;;;;;;;3.42;1.00;;;;;;;2.40;97.69;100099.44;3610521;39;20047;-63
2024/01/15 01:34:46;;;;;;;2.13;1.10;;;;;;;2.43;97.26;100096.66;3600682;39;20043;-64
2024/01/15 01:37:13;;;;;;;2.40;0.88;;;;;;;2.24;97.21;100077.09;3611766;39;20414;-62
2024/01/15 01:39:41;;;;;;;5.20;1.52;;;;;;;2.44;97.16;100110.78;3612280;39;20198;-63
2024/01/15 01:42:06;;;;;;;3.95;1.33;;;;;;;2.42;96.42;100102.91;3609804;39;20051;-63
2024/01/15 01:44:32;;;;;;;7.00;1.20;;;;;;;2.24;96.79;100062.06;3609841;39;20050;-64
2024/01/15 01:47:01;;;;;;;3.55;1.30;;;;;;;2.45;96.46;100108.09;3608956;39;20112;-62
2024/01/15 01:49:28;;;;;;;4.00;1.50;;;;;;;2.30;97.14;100066.25;3612070;39;20058;-63
2024/01/15 01:51:58;;;;;;;7.40;1.48;;;;;;;2.43;96.60;100096.66;3611054;39;20083;-64
2024/01/15 01:54:30;;;;;;;4.38;1.13;;;;;;;2.41;97.42;100103.84;3612110;39;21686;-63
2024/01/15 01:56:58;;;;;;;3.17;1.42;;;;;;;2.39;97.10;100097.72;3609985;39;20047;-61
2024/01/15 01:59:30;;;;;;;2.60;1.20;;;;;;;2.30;97.07;100083.03;3611492;39;20063;-63
2024/01/15 02:01:56;;;;;;;3.50;1.08;;;;;;;2.41;96.20;100095.88;3611073;39;20047;-63
2024/01/15 02:04:26;;;;;;;4.03;1.30;;;;;;;2.38;96.95;100103.97;3608311;39;20055;-63
2024/01/15 02:06:52;;;;;;;3.20;1.15;;;;;;;2.23;96.56;100080.69;3610607;39;20046;-62
2024/01/15 02:09:18;;;;;;;4.18;1.60;;;;;;;2.34;97.12;100102.31;3611541;39;20059;-62
2024/01/15 02:11:47;;;;;;;4.18;1.30;;;;;;;2.31;96.94;100097.16;3610602;39;20318;-62
2024/01/15 02:14:14;;;;;;;3.92;0.80;;;;;;;2.29;96.71;100089.25;3609000;39;20464;-62
2024/01/15 02:16:39;;;;;;;2.47;1.00;;;;;;;2.29;96.16;100106.97;3609955;39;20070;-62
2024/01/15 02:19:06;;;;;;;2.92;1.25;;;;;;;2.28;96.92;100102.56;3609179;39;20442;-62
2024/01/15 02:21:32;;;;;;;3.70;0.93;;;;;;;2.26;96.90;100107.09;3611383;39;20264;-61
2024/01/15 02:23:59;;;;;;;6.00;1.30;;;;;;;2.25;96.17;100100.03;3609267;39;20043;-62
2024/01/15 02:26:26;;;;;;;3.58;1.10;;;;;;;2.26;96.74;100109.75;3610400;39;20050;-62
2024/01/15 02:28:51;;;;;;;3.08;1.00;;;;;;;2.22;96.91;100095.75;3608257;39;20429;-61
2024/01/15 02:31:17;;;;;;;4.85;1.13;;;;;;;2.20;96.51;100089.63;3610323;39;20063;-63
2024/01/15 02:33:45;;;;;;;8.10;1.52;;;;;;;2.17;96.88;100097.69;3609224;39;20075;-63
2024/01/15 02:36:12;;;;;;;4.72;1.20;;;;;;;2.17;96.58;100094.19;3610619;39;20175;-63
2024/01/15 02:38:38;;;;;;;5.53;1.20;;;;;;;2.13;96.87;100093.44;3608989;39;20058;-63
2024/01/15 02:41:04;;;;;;;2.15;0.63;;;;;;;2.13;96.78;100092.59;3606897;39;20437;-65
2024/01/15 02:43:29;;;;;;;6.80;1.27;;;;;;;2.11;95.59;100094.44;3609546;39;20051;-62
2024/01/15 02:45:55;;;;;;;3.28;0.90;;;;;;;2.06;96.15;100087.53;3610086;39;20077;-64
2024/01/15 02:48:20;;;;;;;2.80;0.80;;;;;;;2.08;95.87;100079.50;3607305;39;20051;-63
2024/01/15 02:50:46;;;;;;;6.70;0.82;;;;;;;2.06;96.48;100087.53;3610656;39;20395;-63
2024/01/15 02:53:12;;;;;;;4.60;0.77;;;;;;;2.04;96.80;100089.34;3606661;39;20123;-62
2024/01/15 02:55:37;;;;;;;7.40;1.58;;;;;;;2.02;96.02;100090.34;3610419;39;20541;-62
2024/01/15 02:58:04;;;;;;;3.85;1.55;;;;;;;1.99;96.02;100083.34;3610003;39;20111;-63
2024/01/15 03:00:29;;;;;;;4.40;1.15;;;;;;;2.00;96.63;100092.19;3609694;39;20047;-63
2024/01/15 03:02:55;;;;;;;6.10;1.27;;;;;;;1.88;96.77;100072.31;3609467;39;20417;-63
2024/01/15 03:05:20;;;;;;;4.00;0.95;;;;;;;2.01;97.30;100096.56;3607085;39;20043;-63
2024/01/15 03:07:46;;;;;;;4.97;1.40;;;;;;;1.99;96.82;100103.69;3608990;39;20058;-63
2024/01/15 03:10:12;;;;;;;4.95;1.27;;;;;;;2.07;97.48;100101.63;3610331;39;20063;-64
2024/01/15 03:12:37;;;;;;;4.72;1.17;;;;;;;2.13;97.86;100108.50;3609479;39;20054;-64
2024/01/15 03:15:03;;;;;;;5.35;1.00;;;;;;;2.20;97.48;100110.84;3607980;39;20059;-63
2024/01/15 03:17:29;;;;;;;5.45;1.13;;;;;;;2.19;97.05;100105.56;3609787;39;20058;-63
2024/01/15 03:19:54;;;;;;;2.78;0.98;;;;;;;2.16;96.56;100103.03;3607993;39;20306;-64
2024/01/15 03:22:20;;;;;;;5.93;1.30;;;;;;;2.18;95.80;100095.91;3610892;39;20127;-64
2024/01/15 03:24:46;;;;;;;5.70;1.10;;;;;;;2.15;96.60;100098.69;3610722;39;20051;-64
2024/01/15 03:27:11;;;;;;;4.20;0.65;;;;;;;2.17;97.37;100104.78;3608095;39;20059;-64
2024/01/15 03:29:37;;;;;;;8.15;1.02;;;;;;;2.17;95.85;100086.22;3610967;39;20066;-65
2024/01/15 03:32:03;;;;;;;9.38;1.70;;;;;;;2.14;96.48;100094.31;3609794;39;20094;-63
2024/01/15 03:34:28;;;;;;;4.97;1.08;;;;;;;2.12;96.67;100088.19;3610192;39;20480;-65
2024/01/15 03:36:54;;;;;;;5.53;0.90;;;;;;;2.09;96.90;100086.50;3607409;39;20063;-63
2024/01/15 03:39:19;;;;;;;4.22;1.25;;;;;;;2.03;96.30;100082.34;3608606;39;20074;-65
2024/01/15 03:41:45;;;;;;;3.47;1.10;;;;;;;2.07;97.36;100094.53;3610883;39;20295;-64
2024/01/15 03:44:11;;;;;;;6.10;1.20;;;;;;;2.11;96.83;100089.97;3609697;39;20162;-66
2024/01/15 03:46:36;;;;;;;6.93;1.48;;;;;;;2.17;97.52;100092.41;3608516;39;20058;-64
2024/01/15 03:49:02;;;;;;;5.88;1.25;;;;;;;2.19;97.01;100084.38;3607436;39;20059;-63
2024/01/15 03:51:27;;;;;;;5.93;1.20;;;;;;;2.21;97.51;100082.53;3609735;39;20376;-65
2024/01/15 03:53:53;;;;;;;4.53;1.20;;;;;;;2.23;96.49;100078.03;3611450;39;20062;-66
2024/01/15 03:56:18;;;;;;;4.70;1.38;;;;;;;2.26;96.72;100078.78;3610036;39;20143;-63
2024/01/15 03:58:44;;;;;;;7.28;1.27;;;;;;;2.21;96.90;100062.19;3611870;39;20299;-64
2024/01/15 04:01:10;;;;;;;8.25;1.55;;;;;;;2.31;97.15;100075.94;3610119;39;20055;-65
2024/01/15 04:03:36;;;;;;;6.72;1.25;;;;;;;2.32;97.20;100067.94;3609398;39;20062;-64
2024/01/15 04:06:03;;;;;;;6.78;1.77;;;;;;;2.32;96.94;100056.47;3608549;39;20095;-63
2024/01/15 04:08:29;;;;;;;7.65;1.35;;;;;;;2.34;96.80;100057.25;3608827;39;20067;-65
2024/01/15 04:10:55;;;;;;;5.65;1.30;;;;;;;2.37;96.96;100059.78;3610773;39;20487;-64
2024/01/15 04:13:21;;;;;;;10.73;2.13;;;;;;;2.42;96.19;100063.13;3609340;39;20754;-64
2024/01/15 04:15:47;;;;;;;6.78;1.20;;;;;;;2.41;97.30;100060.50;3610497;39;20054;-65
2024/01/15 04:18:12;;;;;;;9.80;1.85;;;;;;;2.38;97.00;100050.91;3609577;39;20375;-65
2024/01/15 04:20:38;;;;;;;9.02;1.30;;;;;;;2.42;97.00;100049.84;3600522;39;20066;-64
2024/01/15 04:23:04;;;;;;;5.47;1.35;;;;;;;2.31;96.76;100029.06;3612529;39;20363;-65
2024/01/15 04:25:30;;;;;;;2.83;1.13;;;;;;;2.40;96.28;100046.38;3609956;39;20091;-66
2024/01/15 04:27:56;;;;;;;7.68;1.10;;;;;;;2.15;95.78;99995.28;3601630;39;20523;-65
2024/01/15 04:30:22;;;;;;;5.32;1.13;;;;;;;2.43;96.20;100042.75;3610362;39;20778;-66
2024/01/15 04:32:47;;;;;;;3.50;1.05;;;;;;;2.44;95.59;100048.00;3612281;39;20420;-65
2024/01/15 04:35:13;;;;;;;5.93;1.05;;;;;;;2.43;96.39;100042.75;3609642;39;20051;-65
2024/01/15 04:37:40;;;;;;;4.68;0.90;;;;;;;2.40;95.74;100043.75;3609869;39;20406;-65
2024/01/15 04:40:07;;;;;;;4.07;1.02;;;;;;;2.43;96.09;100042.75;3610035;39;20073;-66
2024/01/15 04:42:32;;;;;;;5.90;1.10;;;;;;;2.44;95.24;100049.78;3608718;39;20051;-65
2024/01/15 04:44:58;;;;;;;1.65;0.75;;;;;;;2.43;95.81;100050.72;3607223;39;20288;-66
2024/01/15 04:47:24;;;;;;;3.03;1.00;;;;;;;2.37;94.82;100048.31;3610818;39;20136;-67
2024/01/15 04:49:50;;;;;;;2.83;0.85;;;;;;;2.36;94.37;100044.78;3602861;39;20062;-68
2024/01/15 04:52:16;;;;;;;2.47;0.70;;;;;;;2.31;95.02;100044.09;3610837;39;20054;-69
2024/01/15 04:54:42;;;;;;;1.25;0.68;;;;;;;2.25;95.30;100036.41;3610890;39;20051;-68
2024/01/15 04:57:07;;;;;;;2.40;0.70;;;;;;;2.25;95.22;100039.06;3608949;39;20138;-69
2024/01/15 04:59:33;;;;;;;1.08;0.68;;;;;;;2.14;95.01;100025.38;3612235;39;20063;-68
2024/01/15 05:01:58;;;;;;;1.17;0.47;;;;;;;2.21;94.96;100042.75;3612693;39;20039;-68
2024/01/15 05:04:27;;;;;;;1.27;0.40;;;;;;;2.16;95.25;100034.13;3611323;39;20062;-68
2024/01/15 05:06:53;;;;;;;1.42;0.50;;;;;;;2.11;95.29;100036.97;3611776;39;20050;-68
2024/01/15 05:09:19;;;;;;;3.78;0.75;;;;;;;2.08;95.87;100032.63;3611664;39;20057;-68
2024/01/15 05:11:44;;;;;;;1.48;0.80;;;;;;;2.07;95.10;100032.72;3610519;39;20047;-67
2024/01/15 05:14:10;;;;;;;6.07;1.45;;;;;;;2.08;96.11;100022.03;3609170;39;20406;-67
2024/01/15 05:16:39;;;;;;;4.43;0.85;;;;;;;2.08;95.96;100022.03;3611924;39;20058;-67
2024/01/15 05:19:08;;;;;;;2.38;0.70;;;;;;;1.92;95.50;100002.38;3611373;39;20328;-67
2024/01/15 05:21:33;;;;;;;4.22;1.30;;;;;;;2.12;95.54;100021.91;3610085;39;20381;-68
2024/01/15 05:23:59;;;;;;;3.83;1.05;;;;;;;2.13;96.42;100023.66;3609050;39;20067;-68
2024/01/15 05:26:24;;;;;;;3.67;1.10;;;;;;;2.13;95.95;100013.91;3610223;39;20092;-67
2024/01/15 05:28:50;;;;;;;2.53;1.10;;;;;;;2.08;95.32;100003.47;3611280;39;20055;-67
2024/01/15 05:31:15;;;;;;;4.25;1.13;;;;;;;2.09;95.84;100013.19;3612017;39;20299;-68
2024/01/15 05:33:41;;;;;;;3.65;1.05;;;;;;;2.08;96.48;100005.28;3609311;39;20066;-66
2024/01/15 05:36:07;;;;;;;2.78;1.20;;;;;;;2.04;95.59;100001.88;3611244;39;20062;-67
2024/01/15 05:38:32;;;;;;;4.55;1.40;;;;;;;2.09;96.42;100007.00;3611031;39;20095;-67
2024/01/15 05:40:58;;;;;;;3.00;1.20;;;;;;;2.01;96.96;99987.91;3610147;39;20097;-67
2024/01/15 05:43:23;;;;;;;4.65;1.15;;;;;;;2.11;97.34;99999.00;3610057;39;20061;-66
2024/01/15 05:45:49;;;;;;;3.70;1.40;;;;;;;2.11;96.58;99999.00;3610586;39;20051;-66
2024/01/15 05:48:14;;;;;;;2.72;1.35;;;;;;;2.16;96.67;100002.31;3610874;39;20051;-66
2024/01/15 05:50:41;;;;;;;4.13;1.00;;;;;;;2.17;96.76;100006.69;3609784;39;20043;-65
2024/01/15 05:53:07;;;;;;;4.05;1.20;;;;;;;2.22;96.79;100004.69;3610322;39;20058;-66
2024/01/15 05:55:32;;;;;;;5.35;1.20;;;;;;;2.25;96.81;100004.56;3609437;39;20075;-66
2024/01/15 05:57:58;;;;;;;5.97;1.45;;;;;;;2.23;96.98;99994.06;3610844;39;20050;-65
2024/01/15 06:00:23;;;;;;;3.67;1.33;;;;;;;2.24;96.59;99989.59;3610375;39;20166;-65
2024/01/15 06:02:49;;;;;;;4.93;1.20;;;;;;;2.01;96.82;99956.94;3610551;39;20047;-66
2024/01/15 06:05:15;;;;;;;6.85;1.25;;;;;;;2.24;95.88;99994.91;3609924;39;20067;-66
2024/01/15 06:07:41;;;;;;;7.18;1.60;;;;;;;2.24;97.05;99992.25;3608475;39;20094;-66
2024/01/15 06:10:07;;;;;;;5.80;1.23;;;;;;;2.25;96.94;99989.56;3609319;39;20061;-66
2024/01/15 06:12:33;;;;;;;3.75;1.45;;;;;;;2.25;96.87;99980.72;3610111;39;20056;-66
2024/01/15 06:14:59;;;;;;;6.10;1.95;;;;;;;2.26;96.06;99987.78;3612214;39;20057;-66
2024/01/15 06:17:24;;;;;;;2.85;1.38;;;;;;;2.22;95.80;99980.84;3609731;39;20057;-66
2024/01/15 06:19:50;;;;;;;6.35;1.50;;;;;;;2.19;96.15;99983.63;3610057;39;20058;-66
2024/01/15 06:22:16;;;;;;;5.25;1.20;;;;;;;2.24;95.55;99979.00;3609946;39;20410;-66
2024/01/15 06:24:41;;;;;;;5.68;1.20;;;;;;;2.20;97.21;99982.72;3600850;39;20069;-66
2024/01/15 06:27:07;;;;;;;7.05;1.30;;;;;;;2.24;96.36;99989.59;3608695;39;20051;-66
2024/01/15 06:29:32;;;;;;;3.03;1.27;;;;;;;2.28;97.39;99991.19;3610846;39;20063;-65
2024/01/15 06:31:58;;;;;;;6.93;1.63;;;;;;;2.26;96.38;99982.47;3610723;39;20051;-65
2024/01/15 06:34:24;;;;;;;3.67;1.40;;;;;;;2.23;96.42;99977.28;3609236;39;20290;-65
2024/01/15 06:36:49;;;;;;;4.68;1.75;;;;;;;2.25;96.41;99972.75;3610231;39;20574;-65
2024/01/15 06:39:15;;;;;;;2.17;1.15;;;;;;;2.30;96.60;99981.41;3610374;39;20061;-65
2024/01/15 06:41:44;;;;;;;3.00;1.35;;;;;;;2.25;96.39;99978.94;3611667;39;20059;-66
2024/01/15 06:44:11;;;;;;;2.35;1.50;;;;;;;2.21;95.88;99981.78;3609772;39;20062;-65
2024/01/15 06:46:37;;;;;;;3.20;1.38;;;;;;;2.21;96.55;99990.59;3600010;39;20581;-65
2024/01/15 06:49:03;;;;;;;3.22;1.30;;;;;;;2.18;96.63;99984.56;3610746;39;20051;-65
2024/01/15 06:51:29;;;;;;;1.77;1.17;;;;;;;2.14;96.00;99982.97;3610916;39;20079;-66
2024/01/15 06:53:55;;;;;;;1.63;1.30;;;;;;;2.12;95.98;99990.97;3612052;39;20047;-66
2024/01/15 06:56:20;;;;;;;1.40;0.93;;;;;;;2.11;95.75;99980.44;3608944;39;20059;-66
2024/01/15 06:58:46;;;;;;;3.40;1.40;;;;;;;2.03;95.39;99981.63;3611314;39;20085;-67
2024/01/15 07:01:12;;;;;;;1.10;1.00;;;;;;;2.00;95.51;99971.13;3609487;39;20062;-66
2024/01/15 07:03:38;;;;;;;4.10;1.42;;;;;;;2.00;95.86;99978.22;3609894;39;20304;-67
2024/01/15 07:06:04;;;;;;;3.10;1.17;;;;;;;1.99;96.01;99982.66;3609199;39;20053;-66
2024/01/15 07:08:30;;;;;;;1.67;1.58;;;;;;;1.94;95.80;99976.69;3609410;39;20139;-66
2024/01/15 07:10:55;;;;;;;2.30;1.40;;;;;;;1.92;95.70;99967.91;3601748;39;20066;-67
2024/01/15 07:13:21;;;;;;;1.40;1.40;;;;;;;1.95;96.54;99980.19;3610625;39;20071;-66
2024/01/15 07:15:46;;;;;;;3.05;1.83;;;;;;;1.96;96.33;99979.25;3610575;39;20051;-67
2024/01/15 07:18:12;;;;;;;1.95;1.85;;;;;;;1.96;95.89;99985.41;3611257;39;20066;-66
2024/01/15 07:20:38;;;;;;;2.97;1.85;;;;;;;1.95;96.59;99978.41;3610412;39;20059;-66
2024/01/15 07:23:04;;;;;;;3.70;1.83;;;;;;;1.95;96.51;99983.69;3611444;39;20054;-66
2024/01/15 07:25:29;;;;;;;2.42;2.13;;;;;;;1.94;97.02;99978.47;3609323;39;20059;-66
2024/01/15 07:27:55;;;;;;;2.17;1.98;;;;;;;1.77;95.92;99955.28;3606713;39;20066;-66
2024/01/15 07:30:21;;;;;;;2.75;1.90;;;;;;;1.91;96.70;99982.09;3608587;39;20049;-68
2024/01/15 07:32:47;;;;;;;1.90;1.80;;;;;;;1.96;96.97;99980.13;3612051;39;20043;-67
2024/01/15 07:35:15;;;;;;;2.15;1.95;;;;;;;1.95;96.80;99981.03;3610165;39;20057;-67
2024/01/15 07:37:41;;;;;;;2.28;2.05;;;;;;;1.95;96.88;99978.41;3609552;39;20091;-66
2024/01/15 07:40:08;;;;;;;3.40;2.30;;;;;;;1.99;96.53;99974.69;3611068;39;20059;-66
2024/01/15 07:42:35;;;;;;;2.53;2.33;;;;;;;1.94;96.10;99973.19;3609684;39;20098;-66
2024/01/15 07:45:01;;;;;;;4.40;3.10;;;;;;;1.94;96.37;99975.81;3601953;39;20066;-65
2024/01/15 07:47:27;;;;;;;5.78;3.20;;;;;;;1.97;96.37;99991.59;3608615;39;20047;-66
2024/01/15 07:49:53;;;;;;;3.78;3.40;;;;;;;1.96;97.13;99989.84;3609008;39;20059;-66
2024/01/15 07:52:19;;;;;;;4.82;3.72;;;;;;;1.81;96.74;99965.72;3611731;39;20338;-65
2024/01/15 07:54:45;;;;;;;5.40;3.97;;;;;;;1.94;96.78;99986.44;3611647;39;20055;-65
2024/01/15 07:57:11;;;;;;;6.25;4.80;;;;;;;1.96;95.96;100001.31;3608517;39;20054;-65
2024/01/15 07:59:37;;;;;;;4.63;4.22;;;;;;;1.96;96.18;100006.63;3610924;39;20403;-65
2024/01/15 08:02:03;;;;;;;5.03;4.53;;;;;;;1.91;96.58;99992.72;3611231;39;20398;-64
2024/01/15 08:04:28;;;;;;;5.13;4.63;;;;;;;2.02;96.43;100008.16;3609633;39;20114;-65
2024/01/15 08:06:54;;;;;;;4.70;4.30;;;;;;;2.00;96.05;100005.59;3609777;39;20054;-65
2024/01/15 08:09:20;;;;;;;4.68;4.22;;;;;;;2.03;95.95;100007.22;3610261;39;20051;-65
2024/01/15 08:11:45;;;;;;;4.55;3.95;;;;;;;2.03;95.77;100012.53;3611501;39;20295;-65
2024/01/15 08:14:13;;;;;;;4.85;4.13;;;;;;;2.04;96.47;100014.28;3611182;39;20046;-65
2024/01/15 08:16:39;;;;;;;4.43;3.55;;;;;;;2.02;95.89;100013.47;3598166;39;20315;-65
2024/01/15 08:19:05;;;;;;;3.88;3.35;;;;;;;2.07;96.40;100008.84;3611344;39;20123;-65
2024/01/15 08:21:31;;;;;;;3.17;2.88;;;;;;;2.11;96.29;100009.59;3601098;39;20322;-65
2024/01/15 08:23:59;;;;;;;2.80;2.60;;;;;;;2.14;95.80;100017.44;3610564;39;20059;-65
2024/01/15 08:26:25;;;;;;;5.63;3.10;;;;;;;2.15;95.84;100016.50;3611065;39;20047;-65
2024/01/15 08:28:51;;;;;;;4.00;2.90;;;;;;;1.99;94.85;99990.59;3611861;39;20050;-64
2024/01/15 08:31:17;;;;;;;2.53;2.30;;;;;;;2.14;95.67;100015.63;3610869;39;20110;-65
2024/01/15 08:33:42;;;;;;;2.40;2.20;;;;;;;2.17;95.01;100004.03;3610168;39;20065;-65
2024/01/15 08:36:09;;;;;;;2.65;2.30;;;;;;;2.15;94.56;100020.00;3610091;39;20480;-65
2024/01/15 08:38:35;;;;;;;3.35;1.95;;;;;;;2.17;95.31;100017.31;3610705;39;20063;-64
2024/01/15 08:41:01;;;;;;;4.50;1.92;;;;;;;2.15;94.80;100021.78;3610736;39;20058;-64
2024/01/15 08:43:27;;;;;;;1.65;1.42;;;;;;;2.16;95.44;100023.50;3609246;39;20086;-65
2024/01/15 08:45:53;;;;;;;1.45;1.20;;;;;;;2.18;94.54;100019.03;3611043;39;20058;-65
2024/01/15 08:48:19;;;;;;;1.15;1.13;;;;;;;2.13;95.03;100023.66;3608202;39;20131;-64
2024/01/15 08:50:48;;;;;;;2.85;1.20;;;;;;;2.12;95.23;100021.91;3609810;39;20062;-64
2024/01/15 08:53:14;;;;;;;3.55;1.08;;;;;;;2.09;95.12;100007.88;3609009;39;20057;-65
2024/01/15 08:55:42;;;;;;;3.63;1.33;;;;;;;2.09;95.23;100018.47;3609272;39;20058;-65
2024/01/15 08:58:08;;;;;;;3.03;0.90;;;;;;;2.12;95.19;100021.91;3608945;39;20152;-64
2024/01/15 09:00:34;;;;;;;2.42;1.25;;;;;;;2.11;95.98;100022.84;3611207;39;20692;-65
2024/01/15 09:03:00;;;;;;;0.70;0.70;;;;;;;1.88;96.35;99979.56;3613555;39;20049;-64
2024/01/15 09:05:26;;;;;;;3.95;1.08;;;;;;;2.14;95.44;100012.13;3608626;39;20048;-65
2024/01/15 09:07:52;;;;;;;2.22;0.85;;;;;;;2.21;95.11;100024.19;3612864;39;20051;-65
2024/01/15 09:10:18;;;;;;;5.13;1.15;;;;;;;2.21;95.79;100021.53;3613365;39;20065;-64
2024/01/15 09:12:44;;;;;;;2.75;0.82;;;;;;;2.23;95.68;100031.19;3610616;39;20039;-65
2024/01/15 09:15:10;;;;;;;1.88;0.80;;;;;;;2.24;94.92;100032.03;3612668;39;20055;-65
2024/01/15 09:17:36;;;;;;;2.25;0.63;;;;;;;2.21;94.26;100032.16;3602870;39;20083;-65
2024/01/15 09:20:04;;;;;;;3.00;0.50;;;;;;;2.25;94.13;100039.06;3613140;39;20055;-65
2024/01/15 09:22:30;;;;;;;1.27;0.70;;;;;;;2.24;95.12;100037.34;3611481;39;20050;-65
2024/01/15 09:24:55;;;;;;;4.25;0.85;;;;;;;2.20;94.62;100028.66;3613400;39;20057;-65
2024/01/15 09:27:21;;;;;;;2.60;0.85;;;;;;;2.26;94.65;100038.16;3600885;39;20067;-65
2024/01/15 09:29:46;;;;;;;4.80;0.82;;;;;;;2.26;94.37;100032.84;3610954;39;20062;-65
2024/01/15 09:32:12;;;;;;;3.25;0.90;;;;;;;2.26;93.81;100015.13;3611891;39;20061;-65
2024/01/15 09:34:38;;;;;;;4.05;0.93;;;;;;;2.25;94.12;100010.78;3610786;39;20043;-65
2024/01/15 09:37:04;;;;;;;1.42;0.77;;;;;;;2.35;93.75;100020.97;3610042;39;20326;-65
2024/01/15 09:39:31;;;;;;;5.20;0.88;;;;;;;2.34;93.68;100022.78;3608921;39;20054;-65
2024/01/15 09:41:58;;;;;;;1.75;0.80;;;;;;;2.35;94.31;100021.88;3613881;39;20371;-66
2024/01/15 09:44:23;;;;;;;2.55;1.10;;;;;;;2.41;93.88;100023.38;3608474;39;20439;-65
2024/01/15 09:46:51;;;;;;;2.72;1.17;;;;;;;2.41;93.28;100032.22;3611316;39;20051;-65
2024/01/15 09:49:18;;;;;;;1.55;0.65;;;;;;;2.47;93.39;100036.38;3610501;39;20082;-64
2024/01/15 09:51:45;;;;;;;2.20;0.63;;;;;;;2.47;93.19;100041.69;3609952;39;20055;-64
2024/01/15 09:54:13;;;;;;;4.38;1.10;;;;;;;2.35;92.83;100026.28;3613029;39;20058;-65
2024/01/15 09:56:39;;;;;;;2.30;0.70;;;;;;;2.48;93.13;100051.41;3611144;39;20054;-65
2024/01/15 09:59:06;;;;;;;3.25;0.85;;;;;;;2.51;93.23;100056.59;3613995;39;20073;-64
2024/01/15 10:01:37;;;;;;;3.00;1.00;;;;;;;2.22;92.77;100007.34;3613099;39;20046;-64
2024/01/15 10:04:02;;;;;;;2.83;1.08;;;;;;;2.48;93.07;100062.88;3610960;39;20053;-64
2024/01/15 10:06:29;;;;;;;1.40;0.88;;;;;;;2.45;92.51;100060.34;3609618;39;20455;-64
2024/01/15 10:08:58;;;;;;;4.85;1.17;;;;;;;2.47;92.62;100050.50;3611339;39;20083;-64
2024/01/15 10:11:24;;;;;;;4.47;1.20;;;;;;;2.64;94.11;100057.78;3608284;39;20399;-65
2024/01/15 10:13:53;;;;;;;4.10;1.67;;;;;;;2.77;93.92;100058.13;3609417;39;20090;-65
2024/01/15 10:16:22;;;;;;;5.75;1.45;;;;;;;2.80;93.12;100052.72;3608362;39;20059;-64
2024/01/15 10:18:50;;;;;;;3.58;1.50;;;;;;;2.98;93.84;100049.28;3609422;39;20070;-65
2024/01/15 10:21:16;;;;;;;2.22;1.67;;;;;;;3.06;92.59;100042.75;3607607;39;20061;-65
2024/01/15 10:23:42;;;;;;;4.93;1.83;;;;;;;3.05;91.62;100043.69;3606591;39;20063;-64
2024/01/15 10:26:08;;;;;;;5.05;1.85;;;;;;;3.16;91.76;100041.41;3609441;39;20058;-65
2024/01/15 10:28:33;;;;;;;3.40;1.60;;;;;;;3.26;91.29;100040.06;3607825;39;20094;-65
2024/01/15 10:31:02;;;;;;;5.70;1.50;;;;;;;3.30;91.19;100038.13;3608509;39;21327;-65
2024/01/15 10:33:27;;;;;;;2.58;1.65;;;;;;;3.38;90.88;100047.50;3606906;39;20094;-64
2024/01/15 10:35:55;;;;;;;3.70;1.63;;;;;;;3.46;90.90;100034.75;3608908;39;20051;-65
2024/01/15 10:38:22;;;;;;;3.50;1.60;;;;;;;3.69;91.07;100048.78;3608930;39;20151;-65
2024/01/15 10:40:52;;;;;;;3.90;1.90;;;;;;;3.70;89.92;100011.47;3610889;39;20059;-64
2024/01/15 10:43:18;;;;;;;4.88;1.90;;;;;;;3.79;87.84;100050.06;3607087;39;20058;-64
2024/01/15 10:45:49;;;;;;;4.00;2.00;;;;;;;3.72;88.48;100041.53;3609529;39;20051;-64
2024/01/15 10:48:19;;;;;;;4.80;1.90;;;;;;;3.74;87.88;100046.75;3609209;39;20365;-64
2024/01/15 10:50:46;;;;;;;3.00;1.70;;;;;;;3.40;88.40;99984.56;3610112;39;20051;-63
2024/01/15 10:53:17;;;;;;;2.58;1.63;;;;;;;3.86;88.04;100040.88;3611455;39;20135;-64
2024/01/15 10:55:44;;;;;;;3.80;1.60;;;;;;;3.95;88.07;100044.91;3607452;39;20054;-64
2024/01/15 10:58:10;;;;;;;5.43;2.15;;;;;;;4.00;87.40;100042.91;3608941;39;20058;-64
2024/01/15 11:00:37;;;;;;;2.53;1.27;;;;;;;3.92;86.28;100040.59;3609442;39;20380;-64
2024/01/15 11:03:05;;;;;;;2.40;0.98;;;;;;;3.85;87.46;100031.19;3610712;39;20111;-64
2024/01/15 11:05:38;;;;;;;3.72;1.30;;;;;;;3.84;86.26;100034.78;3606482;39;20103;-64
2024/01/15 11:08:08;;;;;;;3.67;1.15;;;;;;;3.70;86.73;100042.53;3608085;39;20061;-64
2024/01/15 11:10:48;;;;;;;5.93;1.30;;;;;;;3.64;86.50;100050.78;3604737;39;20112;-64
2024/01/15 11:13:32;;;;;;;3.67;1.25;;;;;;;3.73;88.33;100056.53;3610060;39;20153;-64
2024/01/15 11:16:06;;;;;;;;;;;;;;;4.03;88.98;100047.19;3610869;39;20143;-64
2024/01/15 11:18:41;;;;;;;2.15;0.82;;;;;;;4.30;87.95;100055.66;3607777;39;19943;-64
2024/01/15 11:21:15;;;;;;;3.78;1.40;;;;;;;4.51;86.52;100048.44;3609429;39;20395;-64
2024/01/15 11:24:01;;;;;;;5.18;1.10;;;;;;;4.50;84.70;100060.84;3606517;39;20063;-64
2024/01/15 11:26:33;;;;;;;2.25;1.20;;;;;;;4.43;84.67;100064.75;3600244;39;20058;-65
2024/01/15 11:29:28;;;;;;;3.60;0.80;;;;;;;4.27;84.14;100082.41;3610472;39;20066;-64
2024/01/15 11:32:07;;;;;;;1.98;0.80;;;;;;;4.05;83.92;100079.91;3610402;39;20055;-64